createdAt,value
2022-11-07T00:00:20.648Z,1.55
2022-11-07T00:02:47.096Z,2.00
2022-11-07T00:05:13.457Z,1.88
2022-11-07T00:07:39.851Z,1.90
2022-11-07T00:10:06.746Z,2.10
2022-11-07T00:12:36.410Z,2.58
2022-11-07T00:15:05.308Z,1.88
2022-11-07T00:17:32.104Z,1.73
2022-11-07T00:19:58.466Z,2.17
2022-11-07T00:22:24.825Z,1.67
2022-11-07T00:24:51.206Z,1.85
2022-11-07T00:27:17.676Z,2.05
2022-11-07T00:29:44.084Z,2.33
2022-11-07T00:32:10.441Z,1.73
2022-11-07T00:34:36.797Z,1.35
2022-11-07T00:37:03.262Z,1.15
2022-11-07T00:39:29.667Z,2.08
2022-11-07T00:41:56.032Z,2.30
2022-11-07T00:44:22.778Z,2.55
2022-11-07T00:46:49.267Z,1.95
2022-11-07T00:49:15.625Z,2.40
2022-11-07T00:51:42.533Z,2.83
2022-11-07T00:54:08.962Z,1.90
2022-11-07T00:56:35.391Z,2.03
2022-11-07T00:59:02.446Z,1.63
2022-11-07T01:01:31.678Z,2.38
2022-11-07T01:04:33.654Z,2.13
2022-11-07T01:07:01.743Z,1.75
2022-11-07T01:09:28.161Z,1.65
2022-11-07T01:11:54.525Z,1.83
2022-11-07T01:14:22.608Z,2.17
2022-11-07T01:16:49.085Z,1.52
2022-11-07T01:19:17.791Z,1.40
2022-11-07T01:21:44.677Z,2.33
2022-11-07T01:24:16.655Z,1.60
2022-11-07T01:26:44.448Z,1.60
2022-11-07T01:29:10.948Z,1.13
2022-11-07T01:31:37.333Z,1.80
2022-11-07T01:34:03.836Z,3.47
2022-11-07T01:36:30.275Z,2.10
2022-11-07T01:38:56.661Z,1.70
2022-11-07T01:41:26.032Z,1.85
2022-11-07T01:44:00.903Z,1.48
2022-11-07T01:46:29.058Z,1.30
2022-11-07T01:49:23.892Z,2.28
2022-11-07T01:51:59.391Z,1.25
2022-11-07T01:54:30.257Z,3.42
2022-11-07T01:57:00.264Z,1.58
2022-11-07T01:59:31.309Z,2.42
2022-11-07T02:01:58.832Z,1.70
2022-11-07T02:04:28.888Z,1.63
2022-11-07T02:07:03.151Z,1.83
2022-11-07T02:09:29.935Z,2.00
2022-11-07T02:12:00.854Z,1.95
2022-11-07T02:14:28.951Z,2.20
2022-11-07T02:16:55.896Z,1.40
2022-11-07T02:19:22.191Z,1.25
2022-11-07T02:22:03.274Z,1.27
2022-11-07T02:24:33.106Z,1.63
2022-11-07T02:27:05.418Z,1.75
2022-11-07T02:29:33.335Z,1.20
2022-11-07T02:32:04.814Z,1.40
2022-11-07T02:34:31.361Z,1.40
2022-11-07T02:37:00.095Z,1.25
2022-11-07T02:39:26.855Z,1.80
2022-11-07T02:41:54.513Z,2.15
2022-11-07T02:44:21.069Z,1.80
2022-11-07T02:46:47.557Z,2.17
2022-11-07T02:49:13.968Z,2.22
2022-11-07T02:51:40.326Z,1.83
2022-11-07T02:54:06.718Z,2.20
2022-11-07T02:56:33.110Z,1.33
2022-11-07T02:58:59.530Z,1.90
2022-11-07T03:01:26.065Z,1.83
2022-11-07T03:03:52.548Z,1.85
2022-11-07T03:06:21.575Z,2.40
2022-11-07T03:08:48.111Z,2.13
2022-11-07T03:11:19.535Z,2.58
2022-11-07T03:13:47.919Z,2.40
2022-11-07T03:16:15.977Z,1.73
2022-11-07T03:18:42.322Z,2.28
2022-11-07T03:21:08.698Z,2.28
2022-11-07T03:23:36.146Z,1.60
2022-11-07T03:26:03.924Z,2.45
2022-11-07T03:28:30.326Z,2.15
2022-11-07T03:31:00.992Z,2.63
2022-11-07T03:33:31.654Z,4.22
2022-11-07T03:35:58.426Z,2.47
2022-11-07T03:38:25.078Z,3.47
2022-11-07T03:40:51.454Z,4.00
2022-11-07T03:43:18.086Z,2.58
2022-11-07T03:45:44.464Z,1.52
2022-11-07T03:48:10.841Z,1.90
2022-11-07T03:50:37.202Z,1.83
2022-11-07T03:53:03.596Z,1.80
2022-11-07T03:55:30.043Z,4.45
2022-11-07T03:57:56.475Z,3.65
2022-11-07T04:00:22.906Z,2.58
2022-11-07T04:02:49.397Z,4.03
2022-11-07T04:05:15.983Z,3.13
2022-11-07T04:07:42.375Z,2.35
2022-11-07T04:10:09.127Z,3.58
2022-11-07T04:12:53.955Z,3.63
2022-11-07T04:18:05.166Z,2.53
2022-11-07T04:20:31.599Z,2.60
2022-11-07T04:22:58.280Z,2.42
2022-11-07T04:25:44.625Z,3.22
2022-11-07T04:28:11.014Z,2.47
2022-11-07T04:30:37.383Z,2.22
2022-11-07T04:33:03.940Z,2.42
2022-11-07T04:35:32.614Z,2.45
2022-11-07T04:38:00.060Z,3.25
2022-11-07T04:40:28.114Z,2.28
2022-11-07T04:42:54.547Z,3.13
2022-11-07T04:45:20.999Z,1.90
2022-11-07T04:47:48.107Z,2.75
2022-11-07T04:50:16.867Z,2.00
2022-11-07T04:52:43.459Z,1.88
2022-11-07T04:55:18.126Z,2.78
2022-11-07T04:57:44.564Z,1.88
2022-11-07T05:00:11.370Z,2.15
2022-11-07T05:02:37.747Z,1.77
2022-11-07T05:05:04.620Z,2.50
2022-11-07T05:07:31.016Z,2.30
2022-11-07T05:09:57.385Z,1.33
2022-11-07T05:12:23.762Z,1.88
2022-11-07T05:14:50.112Z,1.40
2022-11-07T05:17:16.956Z,1.95
2022-11-07T05:19:43.478Z,2.00
2022-11-07T05:22:29.213Z,2.17
2022-11-07T05:24:56.004Z,2.15
2022-11-07T05:27:23.367Z,2.20
2022-11-07T05:29:49.834Z,3.58
2022-11-07T05:32:17.007Z,3.10
2022-11-07T05:34:43.525Z,2.90
2022-11-07T05:37:11.835Z,3.60
2022-11-07T05:39:38.249Z,2.83
2022-11-07T05:42:04.937Z,2.08
2022-11-07T05:44:31.459Z,2.60
2022-11-07T05:46:58.803Z,2.72
2022-11-07T05:49:25.842Z,2.10
2022-11-07T05:51:52.630Z,2.22
2022-11-07T05:54:19.120Z,4.10
2022-11-07T05:56:45.544Z,2.35
2022-11-07T05:59:12.479Z,2.42
2022-11-07T06:01:39.067Z,3.17
2022-11-07T06:04:07.409Z,2.50
2022-11-07T06:06:33.797Z,2.58
2022-11-07T06:09:00.199Z,1.88
2022-11-07T06:11:26.572Z,2.30
2022-11-07T06:13:54.593Z,2.55
2022-11-07T06:16:21.240Z,2.75
2022-11-07T06:18:47.632Z,2.38
2022-11-07T06:21:15.914Z,3.50
2022-11-07T06:23:42.737Z,3.28
2022-11-07T06:26:09.296Z,3.83
2022-11-07T06:28:36.631Z,3.80
2022-11-07T06:31:04.048Z,3.88
2022-11-07T06:33:31.280Z,5.03
2022-11-07T06:36:11.717Z,3.25
2022-11-07T06:38:39.415Z,4.30
2022-11-07T06:41:11.894Z,3.45
2022-11-07T06:43:39.029Z,3.88
2022-11-07T06:46:08.264Z,3.20
2022-11-07T06:48:34.684Z,3.85
2022-11-07T06:51:03.107Z,4.63
2022-11-07T06:53:30.329Z,3.95
2022-11-07T06:55:59.789Z,3.58
2022-11-07T06:58:26.174Z,3.78
2022-11-07T07:00:52.688Z,4.85
2022-11-07T07:03:19.416Z,3.95
2022-11-07T07:05:46.403Z,3.83
2022-11-07T07:08:14.001Z,3.40
2022-11-07T07:10:44.687Z,4.13
2022-11-07T07:13:13.989Z,3.92
2022-11-07T07:15:51.193Z,3.00
2022-11-07T07:18:18.959Z,4.07
2022-11-07T07:20:45.920Z,3.55
2022-11-07T07:23:12.319Z,5.03
2022-11-07T07:25:38.649Z,4.28
2022-11-07T07:28:05.023Z,3.95
2022-11-07T07:30:31.421Z,3.35
2022-11-07T07:32:57.992Z,3.63
2022-11-07T07:35:24.371Z,5.63
2022-11-07T07:37:52.029Z,3.65
2022-11-07T07:40:19.369Z,4.68
2022-11-07T07:42:46.187Z,4.45
2022-11-07T07:45:15.175Z,3.63
2022-11-07T07:47:41.872Z,4.45
2022-11-07T07:50:10.500Z,3.80
2022-11-07T07:52:37.034Z,3.95
2022-11-07T07:55:03.981Z,3.92
2022-11-07T07:57:30.364Z,3.03
2022-11-07T07:59:56.813Z,3.22
2022-11-07T08:02:23.302Z,2.72
2022-11-07T08:04:49.698Z,3.85
2022-11-07T08:07:16.283Z,4.18
2022-11-07T08:09:42.654Z,4.88
2022-11-07T08:12:09.170Z,4.45
2022-11-07T08:14:35.755Z,3.50
2022-11-07T08:17:02.579Z,4.20
2022-11-07T08:19:28.990Z,3.90
2022-11-07T08:21:55.357Z,4.10
2022-11-07T08:24:21.747Z,4.22
2022-11-07T08:26:48.123Z,3.22
2022-11-07T08:29:14.512Z,3.88
2022-11-07T08:31:40.913Z,3.85
2022-11-07T08:34:07.464Z,3.45
2022-11-07T08:36:33.961Z,3.50
2022-11-07T08:39:00.385Z,3.22
2022-11-07T08:41:26.756Z,3.80
2022-11-07T08:43:53.273Z,3.72
2022-11-07T08:46:19.758Z,3.50
2022-11-07T08:48:46.139Z,3.58
2022-11-07T08:51:12.636Z,2.90
2022-11-07T08:53:39.113Z,4.50
2022-11-07T08:56:10.352Z,4.07
2022-11-07T08:58:37.659Z,3.45
2022-11-07T09:01:08.792Z,3.60
2022-11-07T09:03:46.135Z,4.03
2022-11-07T09:06:14.372Z,2.67
2022-11-07T09:08:41.113Z,3.75
2022-11-07T09:11:07.580Z,2.90
2022-11-07T09:13:34.747Z,4.72
2022-11-07T09:16:02.552Z,3.00
2022-11-07T09:18:29.413Z,3.08
2022-11-07T09:20:57.179Z,3.05
2022-11-07T09:23:23.551Z,3.15
2022-11-07T09:25:49.924Z,3.72
2022-11-07T09:28:16.428Z,3.25
2022-11-07T09:30:43.208Z,3.38
2022-11-07T09:33:09.743Z,2.90
2022-11-07T09:35:36.259Z,3.42
2022-11-07T09:38:02.765Z,3.50
2022-11-07T09:40:38.531Z,3.28
2022-11-07T09:43:33.006Z,3.33
2022-11-07T09:46:12.117Z,3.95
2022-11-07T09:48:44.639Z,5.65
2022-11-07T09:51:15.660Z,4.13
2022-11-07T09:53:46.102Z,4.70
2022-11-07T09:56:14.395Z,3.95
2022-11-07T09:58:47.341Z,4.15
2022-11-07T10:01:16.980Z,4.93
2022-11-07T10:04:10.230Z,4.03
2022-11-07T10:06:43.036Z,3.97
2022-11-07T10:09:15.184Z,3.30
2022-11-07T10:11:53.291Z,4.93
2022-11-07T10:14:42.198Z,3.70
2022-11-07T10:17:13.513Z,3.60
2022-11-07T10:19:54.820Z,3.85
2022-11-07T10:22:49.047Z,4.07
2022-11-07T10:25:30.304Z,3.40
2022-11-07T10:28:17.775Z,3.97
2022-11-07T10:30:48.097Z,3.85
2022-11-07T10:33:29.558Z,3.60
2022-11-07T10:36:04.845Z,5.00
2022-11-07T10:38:35.089Z,3.38
2022-11-07T10:41:01.527Z,3.50
2022-11-07T10:43:33.932Z,3.67
2022-11-07T10:46:02.690Z,3.08
2022-11-07T10:48:29.570Z,3.92
2022-11-07T10:50:56.936Z,3.35
2022-11-07T10:53:26.105Z,2.95
2022-11-07T10:55:54.284Z,3.17
2022-11-07T10:58:33.847Z,3.00
2022-11-07T11:01:06.529Z,2.45
2022-11-07T11:03:46.278Z,3.10
2022-11-07T11:06:18.411Z,2.88
2022-11-07T11:08:47.136Z,4.10
2022-11-07T11:11:32.136Z,3.30
2022-11-07T11:14:10.792Z,3.10
2022-11-07T11:16:40.112Z,3.42
2022-11-07T11:19:17.577Z,3.80
2022-11-07T11:21:46.981Z,3.10
2022-11-07T11:24:37.289Z,2.45
2022-11-07T11:27:15.526Z,2.83
2022-11-07T11:29:58.594Z,3.95
2022-11-07T11:32:37.827Z,1.88
2022-11-07T11:35:41.550Z,3.25
2022-11-07T11:38:21.352Z,3.17
2022-11-07T11:41:01.536Z,3.83
2022-11-07T11:43:41.629Z,2.33
2022-11-07T11:46:27.581Z,3.10
2022-11-07T11:48:58.475Z,3.22
2022-11-07T11:51:27.860Z,2.60
2022-11-07T11:53:54.457Z,5.28
2022-11-07T11:56:36.178Z,2.40
2022-11-07T11:59:27.313Z,3.20
2022-11-07T12:02:24.071Z,2.88
2022-11-07T12:05:11.795Z,2.25
2022-11-07T12:07:50.266Z,2.58
2022-11-07T12:10:33.785Z,2.28
2022-11-07T12:13:11.355Z,3.58
2022-11-07T12:16:14.755Z,2.83
2022-11-07T12:18:50.788Z,3.38
2022-11-07T12:21:32.145Z,3.00
2022-11-07T12:24:19.654Z,3.00
2022-11-07T12:26:57.752Z,2.60
2022-11-07T12:29:39.613Z,9.63
2022-11-07T12:32:53.100Z,2.47
2022-11-07T12:35:35.218Z,3.05
2022-11-07T12:38:23.670Z,2.95
2022-11-07T12:41:25.284Z,2.63
2022-11-07T12:44:29.268Z,2.53
2022-11-07T12:46:59.779Z,3.03
2022-11-07T12:49:49.200Z,3.22
2022-11-07T12:52:29.629Z,4.10
2022-11-07T12:55:17.119Z,3.65
2022-11-07T12:57:44.238Z,3.58
2022-11-07T13:00:19.915Z,3.92
2022-11-07T13:02:54.746Z,3.40
2022-11-07T13:05:34.839Z,3.67
2022-11-07T13:08:14.640Z,3.13
2022-11-07T13:10:53.361Z,3.50
2022-11-07T13:13:49.632Z,3.25
2022-11-07T13:16:30.776Z,3.53
2022-11-07T13:19:20.451Z,2.47
2022-11-07T13:21:46.996Z,3.28
2022-11-07T13:24:22.273Z,3.00
2022-11-07T13:26:48.722Z,2.22
2022-11-07T13:29:39.260Z,2.88
2022-11-07T13:32:06.084Z,2.53
2022-11-07T13:34:41.481Z,2.83
2022-11-07T13:37:13.248Z,2.78
2022-11-07T13:39:39.916Z,2.42
2022-11-07T13:42:06.389Z,3.15
2022-11-07T13:44:36.188Z,3.03
2022-11-07T13:47:11.677Z,2.83
2022-11-07T13:49:45.209Z,2.65
2022-11-07T13:52:23.248Z,2.75
2022-11-07T13:54:57.060Z,2.63
2022-11-07T13:57:29.084Z,2.50
2022-11-07T14:00:00.316Z,2.53
2022-11-07T14:02:32.656Z,3.67
2022-11-07T14:05:15.970Z,2.63
2022-11-07T14:07:51.317Z,2.83
2022-11-07T14:12:44.319Z,3.75
2022-11-07T14:15:16.309Z,2.90
2022-11-07T14:17:45.230Z,4.82
2022-11-07T14:20:17.099Z,2.95
2022-11-07T14:23:00.398Z,3.20
2022-11-07T14:25:33.582Z,3.20
2022-11-07T14:28:01.127Z,2.75
2022-11-07T14:30:30.313Z,3.13
2022-11-07T14:32:59.031Z,4.78
2022-11-07T14:35:34.258Z,3.40
2022-11-07T14:38:12.299Z,3.00
2022-11-07T14:40:41.730Z,3.10
2022-11-07T14:43:13.586Z,3.20
2022-11-07T14:46:11.803Z,4.38
2022-11-07T14:48:30.098Z,3.15
2022-11-07T14:50:58.915Z,2.92
2022-11-07T14:53:37.986Z,3.78
2022-11-07T14:56:09.459Z,3.40
2022-11-07T14:58:36.198Z,4.20
2022-11-07T15:01:05.596Z,5.18
2022-11-07T15:03:34.740Z,2.88
2022-11-07T15:06:01.552Z,4.40
2022-11-07T15:08:33.798Z,3.65
2022-11-07T15:11:04.084Z,3.67
2022-11-07T15:13:33.188Z,3.63
2022-11-07T15:16:05.889Z,4.20
2022-11-07T15:18:37.725Z,3.45
2022-11-07T15:21:04.913Z,3.22
2022-11-07T15:23:37.436Z,4.00
2022-11-07T15:26:06.724Z,4.32
2022-11-07T15:28:42.385Z,3.35
2022-11-07T15:31:28.762Z,3.80
2022-11-07T15:33:57.852Z,4.05
2022-11-07T15:36:25.176Z,3.88
2022-11-07T15:38:52.740Z,3.78
2022-11-07T15:41:19.229Z,3.88
2022-11-07T15:43:45.747Z,3.60
2022-11-07T15:46:25.529Z,4.35
2022-11-07T15:48:52.373Z,4.22
2022-11-07T15:51:18.822Z,4.55
2022-11-07T15:53:45.257Z,4.50
2022-11-07T15:56:15.682Z,4.90
2022-11-07T15:58:42.288Z,3.97
2022-11-07T16:01:09.165Z,4.95
2022-11-07T16:03:35.715Z,4.43
2022-11-07T16:06:02.409Z,3.50
2022-11-07T16:08:30.302Z,4.28
2022-11-07T16:11:01.002Z,4.43
2022-11-07T16:13:28.773Z,4.55
2022-11-07T16:16:00.762Z,4.72
2022-11-07T16:18:27.509Z,4.93
2022-11-07T16:20:53.993Z,5.18
2022-11-07T16:23:20.399Z,3.95
2022-11-07T16:25:50.027Z,4.05
2022-11-07T16:28:19.449Z,3.75
2022-11-07T16:30:45.839Z,4.18
2022-11-07T16:33:12.363Z,3.60
2022-11-07T16:35:39.680Z,4.47
2022-11-07T16:38:14.684Z,3.92
2022-11-07T16:40:42.171Z,3.63
2022-11-07T16:43:08.763Z,4.40
2022-11-07T16:45:36.832Z,3.67
2022-11-07T16:48:22.411Z,4.10
2022-11-07T16:50:49.258Z,3.88
2022-11-07T16:53:16.102Z,3.92
2022-11-07T16:55:53.118Z,3.97
2022-11-07T16:58:32.234Z,4.15
2022-11-07T17:01:07.638Z,4.53
2022-11-07T17:03:34.073Z,3.58
2022-11-07T17:06:02.402Z,3.45
2022-11-07T17:08:36.552Z,4.70
2022-11-07T17:11:03.461Z,4.00
2022-11-07T17:13:29.864Z,5.20
2022-11-07T17:15:57.079Z,4.13
2022-11-07T17:18:25.701Z,4.20
2022-11-07T17:20:55.757Z,3.55
2022-11-07T17:23:29.692Z,4.68
2022-11-07T17:26:00.106Z,4.30
2022-11-07T17:28:26.626Z,4.78
2022-11-07T17:30:53.159Z,3.72
2022-11-07T17:33:19.521Z,4.45
2022-11-07T17:35:55.533Z,4.65
2022-11-07T17:38:21.967Z,4.50
2022-11-07T17:40:48.501Z,4.28
2022-11-07T17:43:14.861Z,3.85
2022-11-07T17:45:41.416Z,4.32
2022-11-07T17:48:09.688Z,4.30
2022-11-07T17:50:36.173Z,3.63
2022-11-07T17:53:03.200Z,4.07
2022-11-07T17:55:29.689Z,3.50
2022-11-07T17:57:56.090Z,3.80
2022-11-07T18:00:24.985Z,2.55
2022-11-07T18:02:52.602Z,3.50
2022-11-07T18:05:21.041Z,3.50
2022-11-07T18:07:47.441Z,3.20
2022-11-07T18:10:15.368Z,3.45
2022-11-07T18:12:42.601Z,2.92
2022-11-07T18:15:11.930Z,3.47
2022-11-07T18:17:39.938Z,3.75
2022-11-07T18:20:07.877Z,3.30
2022-11-07T18:22:35.155Z,3.75
2022-11-07T18:25:01.594Z,3.55
2022-11-07T18:27:27.952Z,2.95
2022-11-07T18:29:54.326Z,3.10
2022-11-07T18:32:20.684Z,2.67
2022-11-07T18:34:47.046Z,2.70
2022-11-07T18:37:13.534Z,3.22
2022-11-07T18:39:39.943Z,2.80
2022-11-07T18:42:06.588Z,2.75
2022-11-07T18:44:33.014Z,2.75
2022-11-07T18:46:59.424Z,2.88
2022-11-07T18:49:25.829Z,2.67
2022-11-07T18:51:52.173Z,2.65
2022-11-07T18:54:18.717Z,2.63
2022-11-07T18:56:45.139Z,3.25
2022-11-07T18:59:11.525Z,2.20
2022-11-07T19:01:38.372Z,3.83
2022-11-07T19:04:05.825Z,3.45
2022-11-07T19:06:33.023Z,2.35
2022-11-07T19:08:59.489Z,2.85
2022-11-07T19:11:29.435Z,2.90
2022-11-07T19:13:59.443Z,2.67
2022-11-07T19:16:26.123Z,2.35
2022-11-07T19:18:52.497Z,2.75
2022-11-07T19:21:20.692Z,2.20
2022-11-07T19:23:48.176Z,2.50
2022-11-07T19:26:15.223Z,2.35
2022-11-07T19:28:41.741Z,2.30
2022-11-07T19:31:12.795Z,2.20
2022-11-07T19:33:41.359Z,2.58
2022-11-07T19:36:13.180Z,3.17
2022-11-07T19:38:39.660Z,2.53
2022-11-07T19:41:08.265Z,2.25
2022-11-07T19:43:35.444Z,2.70
2022-11-07T19:46:28.007Z,2.47
2022-11-07T19:48:55.408Z,3.88
2022-11-07T19:51:23.286Z,2.45
2022-11-07T19:53:58.364Z,3.28
2022-11-07T19:56:27.822Z,2.20
2022-11-07T19:58:55.105Z,2.20
2022-11-07T20:01:25.566Z,2.53
2022-11-07T20:03:53.063Z,2.17
2022-11-07T20:06:23.444Z,2.00
2022-11-07T20:08:50.697Z,2.67
2022-11-07T20:11:19.425Z,2.45
2022-11-07T20:13:46.268Z,2.20
2022-11-07T20:16:13.081Z,2.20
2022-11-07T20:18:39.987Z,2.20
2022-11-07T20:21:13.169Z,2.60
2022-11-07T20:23:41.211Z,2.65
2022-11-07T20:26:10.423Z,2.22
2022-11-07T20:28:36.871Z,3.25
2022-11-07T20:31:08.404Z,2.67
2022-11-07T20:33:34.801Z,2.28
2022-11-07T20:36:04.522Z,2.25
2022-11-07T20:38:31.725Z,2.75
2022-11-07T20:40:58.136Z,2.75
2022-11-07T20:43:24.865Z,2.88
2022-11-07T20:45:51.471Z,2.40
2022-11-07T20:48:19.040Z,2.45
2022-11-07T20:50:46.018Z,2.03
2022-11-07T20:53:12.445Z,1.80
2022-11-07T20:55:43.377Z,2.20
2022-11-07T20:58:11.213Z,2.20
2022-11-07T21:00:40.605Z,3.28
2022-11-07T21:03:13.148Z,1.98
2022-11-07T21:05:39.660Z,1.75
2022-11-07T21:08:06.037Z,2.10
2022-11-07T21:10:32.402Z,1.92
2022-11-07T21:12:59.091Z,2.10
2022-11-07T21:15:25.461Z,1.80
2022-11-07T21:17:51.842Z,3.08
2022-11-07T21:20:18.439Z,3.10
2022-11-07T21:22:48.595Z,2.15
2022-11-07T21:25:16.703Z,3.08
2022-11-07T21:27:43.089Z,2.17
2022-11-07T21:30:09.782Z,1.88
2022-11-07T21:32:36.200Z,1.60
2022-11-07T21:35:02.624Z,2.20
2022-11-07T21:37:29.038Z,1.85
2022-11-07T21:39:55.394Z,2.40
2022-11-07T21:42:21.844Z,2.13
2022-11-07T21:44:48.235Z,1.98
2022-11-07T21:47:14.714Z,1.35
2022-11-07T21:49:41.081Z,2.50
2022-11-07T21:52:07.481Z,3.10
2022-11-07T21:54:33.890Z,2.30
2022-11-07T21:57:00.646Z,2.55
2022-11-07T21:59:27.169Z,2.38
2022-11-07T22:01:54.651Z,2.28
2022-11-07T22:04:21.271Z,2.17
2022-11-07T22:06:47.818Z,2.33
2022-11-07T22:09:16.796Z,1.95
2022-11-07T22:11:44.225Z,2.22
2022-11-07T22:14:15.865Z,2.10
2022-11-07T22:16:42.943Z,2.25
2022-11-07T22:19:12.499Z,2.50
2022-11-07T22:21:40.329Z,2.45
2022-11-07T22:24:07.184Z,2.10
2022-11-07T22:26:33.821Z,2.28
2022-11-07T22:29:00.395Z,3.15
2022-11-07T22:31:32.496Z,2.85
2022-11-07T22:34:00.643Z,2.92
2022-11-07T22:36:28.410Z,2.13
2022-11-07T22:38:57.488Z,2.40
2022-11-07T22:41:25.721Z,2.33
2022-11-07T22:43:52.688Z,2.60
2022-11-07T22:46:21.904Z,2.85
2022-11-07T22:48:49.656Z,2.40
2022-11-07T22:51:22.300Z,1.80
2022-11-07T22:53:55.020Z,2.25
2022-11-07T22:56:21.801Z,2.78
2022-11-07T22:58:48.606Z,2.65
2022-11-07T23:01:17.967Z,2.25
2022-11-07T23:03:45.067Z,1.90
2022-11-07T23:06:11.658Z,1.95
2022-11-07T23:08:38.418Z,1.70
2022-11-07T23:14:03.021Z,2.53
2022-11-07T23:16:33.020Z,1.95
2022-11-07T23:19:01.778Z,1.73
2022-11-07T23:21:28.985Z,2.08
2022-11-07T23:24:00.045Z,1.60
2022-11-07T23:26:34.978Z,1.95
2022-11-07T23:29:16.753Z,1.88
2022-11-07T23:31:46.992Z,1.85
2022-11-07T23:34:14.353Z,2.00
2022-11-07T23:36:44.312Z,1.80
2022-11-07T23:39:15.566Z,1.88
2022-11-07T23:41:42.408Z,2.78
2022-11-07T23:44:10.179Z,1.80
2022-11-07T23:46:55.688Z,2.08
2022-11-07T23:49:54.494Z,2.10
2022-11-07T23:52:21.051Z,2.13
2022-11-07T23:55:06.847Z,1.98
2022-11-07T23:57:55.329Z,2.00
